sensor_id;sensor_type;location;lat;lon;timestamp;P1;durP1;ratioP1;P2;durP2;ratioP2
10839;SDS011;5473;42.706;23.328;2023-02-01T00:00:10;0.70;;;0.70;;
10839;SDS011;5473;42.706;23.328;2023-02-01T00:02:39;0.70;;;0.70;;
10839;SDS011;5473;42.706;23.328;2023-02-01T00:05:07;0.67;;;0.67;;
10839;SDS011;5473;42.706;23.328;2023-02-01T00:07:34;0.70;;;0.70;;
10839;SDS011;5473;42.706;23.328;2023-02-01T00:10:01;0.80;;;0.80;;
10839;SDS011;5473;42.706;23.328;2023-02-01T00:12:28;0.70;;;0.70;;
10839;SDS011;5473;42.706;23.328;2023-02-01T00:14:55;0.70;;;0.70;;
10839;SDS011;5473;42.706;23.328;2023-02-01T00:17:22;0.80;;;0.80;;
10839;SDS011;5473;42.706;23.328;2023-02-01T00:19:50;0.60;;;0.60;;
10839;SDS011;5473;42.706;23.328;2023-02-01T00:22:17;0.80;;;0.80;;
10839;SDS011;5473;42.706;23.328;2023-02-01T00:24:44;0.80;;;0.80;;
10839;SDS011;5473;42.706;23.328;2023-02-01T00:27:10;0.87;;;0.87;;
10839;SDS011;5473;42.706;23.328;2023-02-01T00:29:42;0.70;;;0.70;;
10839;SDS011;5473;42.706;23.328;2023-02-01T00:32:09;0.60;;;0.60;;
10839;SDS011;5473;42.706;23.328;2023-02-01T00:34:36;0.70;;;0.70;;
10839;SDS011;5473;42.706;23.328;2023-02-01T00:37:04;0.70;;;0.70;;
10839;SDS011;5473;42.706;23.328;2023-02-01T00:39:31;0.70;;;0.70;;
10839;SDS011;5473;42.706;23.328;2023-02-01T00:41:58;0.70;;;0.70;;
10839;SDS011;5473;42.706;23.328;2023-02-01T00:44:26;0.70;;;0.70;;
10839;SDS011;5473;42.706;23.328;2023-02-01T00:46:53;0.60;;;0.60;;
10839;SDS011;5473;42.706;23.328;2023-02-01T00:49:19;0.70;;;0.70;;
10839;SDS011;5473;42.706;23.328;2023-02-01T00:51:46;0.80;;;0.80;;
10839;SDS011;5473;42.706;23.328;2023-02-01T00:54:15;0.80;;;0.80;;
10839;SDS011;5473;42.706;23.328;2023-02-01T00:56:41;0.80;;;0.80;;
10839;SDS011;5473;42.706;23.328;2023-02-01T00:59:10;0.80;;;0.80;;
10839;SDS011;5473;42.706;23.328;2023-02-01T01:01:37;0.70;;;0.70;;
10839;SDS011;5473;42.706;23.328;2023-02-01T01:04:04;0.70;;;0.70;;
10839;SDS011;5473;42.706;23.328;2023-02-01T01:06:32;0.70;;;0.70;;
10839;SDS011;5473;42.706;23.328;2023-02-01T01:09:00;0.70;;;0.70;;
10839;SDS011;5473;42.706;23.328;2023-02-01T01:11:31;0.80;;;0.80;;
10839;SDS011;5473;42.706;23.328;2023-02-01T01:14:00;0.70;;;0.70;;
10839;SDS011;5473;42.706;23.328;2023-02-01T01:16:27;0.70;;;0.70;;
10839;SDS011;5473;42.706;23.328;2023-02-01T01:18:56;0.70;;;0.70;;
10839;SDS011;5473;42.706;23.328;2023-02-01T01:21:23;0.70;;;0.70;;
10839;SDS011;5473;42.706;23.328;2023-02-01T01:23:51;0.70;;;0.70;;
10839;SDS011;5473;42.706;23.328;2023-02-01T01:26:19;0.70;;;0.70;;
10839;SDS011;5473;42.706;23.328;2023-02-01T01:28:48;0.80;;;0.80;;
10839;SDS011;5473;42.706;23.328;2023-02-01T01:31:16;0.80;;;0.80;;
10839;SDS011;5473;42.706;23.328;2023-02-01T01:33:43;0.70;;;0.70;;
10839;SDS011;5473;42.706;23.328;2023-02-01T01:36:11;0.70;;;0.70;;
10839;SDS011;5473;42.706;23.328;2023-02-01T01:38:38;0.70;;;0.70;;
10839;SDS011;5473;42.706;23.328;2023-02-01T01:41:06;0.70;;;0.70;;
10839;SDS011;5473;42.706;23.328;2023-02-01T01:43:51;0.77;;;0.77;;
10839;SDS011;5473;42.706;23.328;2023-02-01T01:46:20;0.70;;;0.70;;
10839;SDS011;5473;42.706;23.328;2023-02-01T01:48:49;0.80;;;0.80;;
10839;SDS011;5473;42.706;23.328;2023-02-01T01:51:20;0.80;;;0.80;;
10839;SDS011;5473;42.706;23.328;2023-02-01T01:53:50;0.80;;;0.80;;
10839;SDS011;5473;42.706;23.328;2023-02-01T01:56:23;0.90;;;0.90;;
10839;SDS011;5473;42.706;23.328;2023-02-01T01:58:54;0.80;;;0.80;;
10839;SDS011;5473;42.706;23.328;2023-02-01T02:01:21;0.70;;;0.70;;
10839;SDS011;5473;42.706;23.328;2023-02-01T02:03:48;0.77;;;0.77;;
10839;SDS011;5473;42.706;23.328;2023-02-01T02:06:16;0.73;;;0.73;;
10839;SDS011;5473;42.706;23.328;2023-02-01T02:08:52;0.70;;;0.70;;
10839;SDS011;5473;42.706;23.328;2023-02-01T02:11:19;0.80;;;0.80;;
10839;SDS011;5473;42.706;23.328;2023-02-01T02:13:47;0.70;;;0.70;;
10839;SDS011;5473;42.706;23.328;2023-02-01T02:16:23;0.70;;;0.70;;
10839;SDS011;5473;42.706;23.328;2023-02-01T02:19:09;0.80;;;0.80;;
10839;SDS011;5473;42.706;23.328;2023-02-01T02:21:59;0.70;;;0.70;;
10839;SDS011;5473;42.706;23.328;2023-02-01T02:24:48;0.80;;;0.80;;
10839;SDS011;5473;42.706;23.328;2023-02-01T02:27:31;0.80;;;0.80;;
10839;SDS011;5473;42.706;23.328;2023-02-01T02:33:34;0.80;;;0.80;;
10839;SDS011;5473;42.706;23.328;2023-02-01T02:36:09;0.80;;;0.80;;
10839;SDS011;5473;42.706;23.328;2023-02-01T02:38:45;0.70;;;0.70;;
10839;SDS011;5473;42.706;23.328;2023-02-01T02:41:19;0.80;;;0.80;;
10839;SDS011;5473;42.706;23.328;2023-02-01T02:44:12;0.70;;;0.70;;
10839;SDS011;5473;42.706;23.328;2023-02-01T02:47:04;0.80;;;0.80;;
10839;SDS011;5473;42.706;23.328;2023-02-01T02:49:55;0.73;;;0.73;;
10839;SDS011;5473;42.706;23.328;2023-02-01T02:52:46;0.70;;;0.70;;
10839;SDS011;5473;42.706;23.328;2023-02-01T02:55:35;0.73;;;0.73;;
10839;SDS011;5473;42.706;23.328;2023-02-01T02:58:06;0.70;;;0.70;;
10839;SDS011;5473;42.706;23.328;2023-02-01T03:00:52;0.70;;;0.70;;
10839;SDS011;5473;42.706;23.328;2023-02-01T03:03:38;0.70;;;0.70;;
10839;SDS011;5473;42.706;23.328;2023-02-01T03:06:24;0.77;;;0.77;;
10839;SDS011;5473;42.706;23.328;2023-02-01T03:08:51;0.70;;;0.70;;
10839;SDS011;5473;42.706;23.328;2023-02-01T03:11:23;0.70;;;0.70;;
10839;SDS011;5473;42.706;23.328;2023-02-01T03:14:11;0.73;;;0.73;;
10839;SDS011;5473;42.706;23.328;2023-02-01T03:16:41;0.70;;;0.70;;
10839;SDS011;5473;42.706;23.328;2023-02-01T03:19:15;0.70;;;0.70;;
10839;SDS011;5473;42.706;23.328;2023-02-01T03:21:48;0.70;;;0.70;;
10839;SDS011;5473;42.706;23.328;2023-02-01T03:24:20;0.70;;;0.70;;
10839;SDS011;5473;42.706;23.328;2023-02-01T03:26:58;0.80;;;0.80;;
10839;SDS011;5473;42.706;23.328;2023-02-01T03:29:34;0.70;;;0.70;;
10839;SDS011;5473;42.706;23.328;2023-02-01T03:32:04;0.80;;;0.80;;
10839;SDS011;5473;42.706;23.328;2023-02-01T03:34:32;0.83;;;0.83;;
10839;SDS011;5473;42.706;23.328;2023-02-01T03:37:01;0.70;;;0.70;;
10839;SDS011;5473;42.706;23.328;2023-02-01T03:39:32;0.73;;;0.73;;
10839;SDS011;5473;42.706;23.328;2023-02-01T03:42:02;0.77;;;0.77;;
10839;SDS011;5473;42.706;23.328;2023-02-01T03:44:35;0.80;;;0.80;;
10839;SDS011;5473;42.706;23.328;2023-02-01T03:47:05;0.80;;;0.80;;
10839;SDS011;5473;42.706;23.328;2023-02-01T03:49:35;0.70;;;0.70;;
10839;SDS011;5473;42.706;23.328;2023-02-01T03:52:08;0.70;;;0.70;;
10839;SDS011;5473;42.706;23.328;2023-02-01T03:54:39;0.80;;;0.80;;
10839;SDS011;5473;42.706;23.328;2023-02-01T03:57:09;0.80;;;0.80;;
10839;SDS011;5473;42.706;23.328;2023-02-01T03:59:39;0.80;;;0.80;;
10839;SDS011;5473;42.706;23.328;2023-02-01T04:02:07;0.70;;;0.70;;
10839;SDS011;5473;42.706;23.328;2023-02-01T04:04:34;0.80;;;0.80;;
10839;SDS011;5473;42.706;23.328;2023-02-01T04:07:01;0.80;;;0.80;;
10839;SDS011;5473;42.706;23.328;2023-02-01T04:09:30;0.90;;;0.90;;
10839;SDS011;5473;42.706;23.328;2023-02-01T04:11:56;0.70;;;0.70;;
10839;SDS011;5473;42.706;23.328;2023-02-01T04:14:23;0.70;;;0.70;;
10839;SDS011;5473;42.706;23.328;2023-02-01T04:16:50;0.70;;;0.70;;
10839;SDS011;5473;42.706;23.328;2023-02-01T04:19:17;0.77;;;0.77;;
10839;SDS011;5473;42.706;23.328;2023-02-01T04:21:43;0.70;;;0.70;;
10839;SDS011;5473;42.706;23.328;2023-02-01T04:24:10;0.70;;;0.70;;
10839;SDS011;5473;42.706;23.328;2023-02-01T04:26:38;0.70;;;0.70;;
10839;SDS011;5473;42.706;23.328;2023-02-01T04:29:05;0.80;;;0.80;;
10839;SDS011;5473;42.706;23.328;2023-02-01T04:31:32;0.60;;;0.60;;
10839;SDS011;5473;42.706;23.328;2023-02-01T04:34:01;0.70;;;0.70;;
10839;SDS011;5473;42.706;23.328;2023-02-01T04:36:28;0.70;;;0.70;;
10839;SDS011;5473;42.706;23.328;2023-02-01T04:38:55;0.80;;;0.80;;
10839;SDS011;5473;42.706;23.328;2023-02-01T04:41:22;0.80;;;0.80;;
10839;SDS011;5473;42.706;23.328;2023-02-01T04:43:50;0.70;;;0.70;;
10839;SDS011;5473;42.706;23.328;2023-02-01T04:46:18;0.70;;;0.70;;
10839;SDS011;5473;42.706;23.328;2023-02-01T04:48:45;0.70;;;0.70;;
10839;SDS011;5473;42.706;23.328;2023-02-01T04:51:11;0.80;;;0.80;;
10839;SDS011;5473;42.706;23.328;2023-02-01T04:53:40;0.70;;;0.70;;
10839;SDS011;5473;42.706;23.328;2023-02-01T04:56:07;0.80;;;0.80;;
10839;SDS011;5473;42.706;23.328;2023-02-01T04:58:34;0.80;;;0.80;;
10839;SDS011;5473;42.706;23.328;2023-02-01T05:01:03;0.70;;;0.70;;
10839;SDS011;5473;42.706;23.328;2023-02-01T05:03:30;0.70;;;0.70;;
10839;SDS011;5473;42.706;23.328;2023-02-01T05:05:57;0.70;;;0.70;;
10839;SDS011;5473;42.706;23.328;2023-02-01T05:08:25;0.77;;;0.77;;
10839;SDS011;5473;42.706;23.328;2023-02-01T05:10:53;0.70;;;0.70;;
10839;SDS011;5473;42.706;23.328;2023-02-01T05:13:20;0.80;;;0.80;;
10839;SDS011;5473;42.706;23.328;2023-02-01T05:16:06;0.60;;;0.60;;
10839;SDS011;5473;42.706;23.328;2023-02-01T05:18:33;0.70;;;0.70;;
10839;SDS011;5473;42.706;23.328;2023-02-01T05:21:00;0.70;;;0.70;;
10839;SDS011;5473;42.706;23.328;2023-02-01T05:23:27;0.70;;;0.70;;
10839;SDS011;5473;42.706;23.328;2023-02-01T05:25:57;0.80;;;0.80;;
10839;SDS011;5473;42.706;23.328;2023-02-01T05:28:24;0.70;;;0.70;;
10839;SDS011;5473;42.706;23.328;2023-02-01T05:30:51;0.70;;;0.70;;
10839;SDS011;5473;42.706;23.328;2023-02-01T05:33:19;0.70;;;0.70;;
10839;SDS011;5473;42.706;23.328;2023-02-01T05:35:46;0.70;;;0.70;;
10839;SDS011;5473;42.706;23.328;2023-02-01T05:38:13;0.70;;;0.70;;
10839;SDS011;5473;42.706;23.328;2023-02-01T05:40:39;0.70;;;0.70;;
10839;SDS011;5473;42.706;23.328;2023-02-01T05:43:06;0.80;;;0.80;;
10839;SDS011;5473;42.706;23.328;2023-02-01T05:45:33;0.80;;;0.80;;
10839;SDS011;5473;42.706;23.328;2023-02-01T05:47:59;0.77;;;0.77;;
10839;SDS011;5473;42.706;23.328;2023-02-01T05:50:27;0.80;;;0.80;;
10839;SDS011;5473;42.706;23.328;2023-02-01T05:52:54;0.73;;;0.73;;
10839;SDS011;5473;42.706;23.328;2023-02-01T05:55:21;0.70;;;0.70;;
10839;SDS011;5473;42.706;23.328;2023-02-01T05:57:48;0.80;;;0.80;;
10839;SDS011;5473;42.706;23.328;2023-02-01T06:00:14;0.80;;;0.80;;
10839;SDS011;5473;42.706;23.328;2023-02-01T06:02:42;0.70;;;0.70;;
10839;SDS011;5473;42.706;23.328;2023-02-01T06:05:08;0.70;;;0.70;;
10839;SDS011;5473;42.706;23.328;2023-02-01T06:07:36;0.70;;;0.70;;
10839;SDS011;5473;42.706;23.328;2023-02-01T06:10:03;0.70;;;0.70;;
10839;SDS011;5473;42.706;23.328;2023-02-01T06:12:31;0.70;;;0.70;;
10839;SDS011;5473;42.706;23.328;2023-02-01T06:14:58;0.70;;;0.70;;
10839;SDS011;5473;42.706;23.328;2023-02-01T06:17:25;0.70;;;0.70;;
10839;SDS011;5473;42.706;23.328;2023-02-01T06:19:52;0.60;;;0.60;;
10839;SDS011;5473;42.706;23.328;2023-02-01T06:22:18;0.67;;;0.67;;
10839;SDS011;5473;42.706;23.328;2023-02-01T06:24:48;0.77;;;0.77;;
10839;SDS011;5473;42.706;23.328;2023-02-01T06:27:14;0.60;;;0.60;;
10839;SDS011;5473;42.706;23.328;2023-02-01T06:29:41;0.70;;;0.70;;
10839;SDS011;5473;42.706;23.328;2023-02-01T06:32:08;0.70;;;0.70;;
10839;SDS011;5473;42.706;23.328;2023-02-01T06:34:35;0.60;;;0.60;;
10839;SDS011;5473;42.706;23.328;2023-02-01T06:37:02;0.63;;;0.63;;
10839;SDS011;5473;42.706;23.328;2023-02-01T06:39:29;0.70;;;0.70;;
10839;SDS011;5473;42.706;23.328;2023-02-01T06:41:57;0.70;;;0.70;;
10839;SDS011;5473;42.706;23.328;2023-02-01T06:44:24;0.67;;;0.67;;
10839;SDS011;5473;42.706;23.328;2023-02-01T06:46:50;0.70;;;0.70;;
10839;SDS011;5473;42.706;23.328;2023-02-01T06:49:17;0.63;;;0.63;;
10839;SDS011;5473;42.706;23.328;2023-02-01T06:51:44;0.70;;;0.70;;
10839;SDS011;5473;42.706;23.328;2023-02-01T06:54:11;0.60;;;0.60;;
10839;SDS011;5473;42.706;23.328;2023-02-01T06:56:38;0.70;;;0.70;;
10839;SDS011;5473;42.706;23.328;2023-02-01T06:59:06;0.60;;;0.60;;
10839;SDS011;5473;42.706;23.328;2023-02-01T07:01:33;0.60;;;0.60;;
10839;SDS011;5473;42.706;23.328;2023-02-01T07:04:00;0.70;;;0.70;;
10839;SDS011;5473;42.706;23.328;2023-02-01T07:06:27;0.70;;;0.70;;
10839;SDS011;5473;42.706;23.328;2023-02-01T07:08:54;0.80;;;0.80;;
10839;SDS011;5473;42.706;23.328;2023-02-01T07:11:21;0.70;;;0.70;;
10839;SDS011;5473;42.706;23.328;2023-02-01T07:13:48;0.60;;;0.60;;
10839;SDS011;5473;42.706;23.328;2023-02-01T07:16:17;0.70;;;0.70;;
10839;SDS011;5473;42.706;23.328;2023-02-01T07:18:45;0.70;;;0.70;;
10839;SDS011;5473;42.706;23.328;2023-02-01T07:21:13;0.70;;;0.70;;
10839;SDS011;5473;42.706;23.328;2023-02-01T07:23:40;0.70;;;0.70;;
10839;SDS011;5473;42.706;23.328;2023-02-01T07:26:07;0.63;;;0.63;;
10839;SDS011;5473;42.706;23.328;2023-02-01T07:28:37;0.70;;;0.70;;
10839;SDS011;5473;42.706;23.328;2023-02-01T07:31:04;0.70;;;0.70;;
10839;SDS011;5473;42.706;23.328;2023-02-01T07:33:32;0.60;;;0.60;;
10839;SDS011;5473;42.706;23.328;2023-02-01T07:36:00;0.60;;;0.60;;
10839;SDS011;5473;42.706;23.328;2023-02-01T07:38:28;0.60;;;0.60;;
10839;SDS011;5473;42.706;23.328;2023-02-01T07:40:56;0.53;;;0.53;;
10839;SDS011;5473;42.706;23.328;2023-02-01T07:43:24;0.70;;;0.70;;
10839;SDS011;5473;42.706;23.328;2023-02-01T07:45:51;0.80;;;0.80;;
10839;SDS011;5473;42.706;23.328;2023-02-01T07:48:19;0.63;;;0.63;;
10839;SDS011;5473;42.706;23.328;2023-02-01T07:50:47;0.70;;;0.70;;
10839;SDS011;5473;42.706;23.328;2023-02-01T07:53:14;0.70;;;0.70;;
10839;SDS011;5473;42.706;23.328;2023-02-01T07:55:41;0.60;;;0.60;;
10839;SDS011;5473;42.706;23.328;2023-02-01T07:58:07;0.60;;;0.60;;
10839;SDS011;5473;42.706;23.328;2023-02-01T08:00:34;0.60;;;0.60;;
10839;SDS011;5473;42.706;23.328;2023-02-01T08:03:18;0.60;;;0.60;;
10839;SDS011;5473;42.706;23.328;2023-02-01T08:05:45;0.70;;;0.70;;
10839;SDS011;5473;42.706;23.328;2023-02-01T08:08:13;0.60;;;0.60;;
10839;SDS011;5473;42.706;23.328;2023-02-01T08:10:40;0.70;;;0.70;;
10839;SDS011;5473;42.706;23.328;2023-02-01T08:13:06;0.60;;;0.60;;
10839;SDS011;5473;42.706;23.328;2023-02-01T08:15:33;0.67;;;0.67;;
10839;SDS011;5473;42.706;23.328;2023-02-01T08:18:00;0.60;;;0.60;;
10839;SDS011;5473;42.706;23.328;2023-02-01T08:20:27;0.60;;;0.60;;
10839;SDS011;5473;42.706;23.328;2023-02-01T08:22:54;0.60;;;0.60;;
10839;SDS011;5473;42.706;23.328;2023-02-01T08:25:22;0.67;;;0.67;;
10839;SDS011;5473;42.706;23.328;2023-02-01T08:27:49;0.60;;;0.60;;
10839;SDS011;5473;42.706;23.328;2023-02-01T08:30:16;0.70;;;0.70;;
10839;SDS011;5473;42.706;23.328;2023-02-01T08:32:43;0.60;;;0.60;;
10839;SDS011;5473;42.706;23.328;2023-02-01T08:35:10;0.50;;;0.50;;
10839;SDS011;5473;42.706;23.328;2023-02-01T08:37:37;0.50;;;0.50;;
10839;SDS011;5473;42.706;23.328;2023-02-01T08:40:04;0.60;;;0.60;;
10839;SDS011;5473;42.706;23.328;2023-02-01T08:42:33;0.60;;;0.60;;
10839;SDS011;5473;42.706;23.328;2023-02-01T08:45:17;0.70;;;0.70;;
10839;SDS011;5473;42.706;23.328;2023-02-01T08:47:45;0.60;;;0.60;;
10839;SDS011;5473;42.706;23.328;2023-02-01T08:50:13;0.60;;;0.60;;
10839;SDS011;5473;42.706;23.328;2023-02-01T08:52:41;0.63;;;0.63;;
10839;SDS011;5473;42.706;23.328;2023-02-01T08:55:08;0.60;;;0.60;;
10839;SDS011;5473;42.706;23.328;2023-02-01T08:57:37;0.60;;;0.60;;
10839;SDS011;5473;42.706;23.328;2023-02-01T09:00:05;0.60;;;0.60;;
10839;SDS011;5473;42.706;23.328;2023-02-01T09:02:34;0.60;;;0.60;;
10839;SDS011;5473;42.706;23.328;2023-02-01T09:05:01;0.60;;;0.60;;
10839;SDS011;5473;42.706;23.328;2023-02-01T09:07:29;0.50;;;0.50;;
10839;SDS011;5473;42.706;23.328;2023-02-01T09:09:55;0.50;;;0.50;;
10839;SDS011;5473;42.706;23.328;2023-02-01T09:12:26;0.50;;;0.50;;
10839;SDS011;5473;42.706;23.328;2023-02-01T09:14:54;0.60;;;0.60;;
10839;SDS011;5473;42.706;23.328;2023-02-01T09:17:21;0.60;;;0.60;;
10839;SDS011;5473;42.706;23.328;2023-02-01T09:19:48;0.50;;;0.50;;
10839;SDS011;5473;42.706;23.328;2023-02-01T09:22:15;0.60;;;0.60;;
10839;SDS011;5473;42.706;23.328;2023-02-01T09:24:42;0.50;;;0.50;;
10839;SDS011;5473;42.706;23.328;2023-02-01T09:27:08;0.60;;;0.60;;
10839;SDS011;5473;42.706;23.328;2023-02-01T09:29:35;0.63;;;0.63;;
10839;SDS011;5473;42.706;23.328;2023-02-01T09:32:03;0.60;;;0.60;;
10839;SDS011;5473;42.706;23.328;2023-02-01T09:34:31;0.60;;;0.60;;
10839;SDS011;5473;42.706;23.328;2023-02-01T09:36:58;0.50;;;0.50;;
10839;SDS011;5473;42.706;23.328;2023-02-01T09:39:25;0.60;;;0.60;;
10839;SDS011;5473;42.706;23.328;2023-02-01T09:41:55;0.50;;;0.50;;
10839;SDS011;5473;42.706;23.328;2023-02-01T09:44:36;0.60;;;0.60;;
10839;SDS011;5473;42.706;23.328;2023-02-01T09:47:16;0.70;;;0.70;;
10839;SDS011;5473;42.706;23.328;2023-02-01T09:49:47;0.60;;;0.60;;
10839;SDS011;5473;42.706;23.328;2023-02-01T09:52:19;0.60;;;0.60;;
10839;SDS011;5473;42.706;23.328;2023-02-01T09:54:54;0.50;;;0.50;;
10839;SDS011;5473;42.706;23.328;2023-02-01T09:57:28;0.60;;;0.60;;
10839;SDS011;5473;42.706;23.328;2023-02-01T10:00:07;0.60;;;0.60;;
10839;SDS011;5473;42.706;23.328;2023-02-01T10:02:44;0.60;;;0.60;;
10839;SDS011;5473;42.706;23.328;2023-02-01T10:05:12;0.50;;;0.50;;
10839;SDS011;5473;42.706;23.328;2023-02-01T10:07:43;0.60;;;0.60;;
10839;SDS011;5473;42.706;23.328;2023-02-01T10:10:18;0.50;;;0.50;;
10839;SDS011;5473;42.706;23.328;2023-02-01T10:15:53;0.60;;;0.60;;
10839;SDS011;5473;42.706;23.328;2023-02-01T10:18:37;0.50;;;0.50;;
10839;SDS011;5473;42.706;23.328;2023-02-01T10:21:17;0.30;;;0.30;;
10839;SDS011;5473;42.706;23.328;2023-02-01T10:23:58;0.50;;;0.50;;
10839;SDS011;5473;42.706;23.328;2023-02-01T10:26:38;0.30;;;0.30;;
10839;SDS011;5473;42.706;23.328;2023-02-01T10:29:11;0.50;;;0.50;;
10839;SDS011;5473;42.706;23.328;2023-02-01T10:31:42;0.30;;;0.30;;
10839;SDS011;5473;42.706;23.328;2023-02-01T10:34:13;0.33;;;0.33;;
10839;SDS011;5473;42.706;23.328;2023-02-01T10:36:48;0.40;;;0.40;;
10839;SDS011;5473;42.706;23.328;2023-02-01T10:39:19;0.30;;;0.30;;
10839;SDS011;5473;42.706;23.328;2023-02-01T10:41:46;0.30;;;0.30;;
10839;SDS011;5473;42.706;23.328;2023-02-01T10:44:14;0.30;;;0.30;;
10839;SDS011;5473;42.706;23.328;2023-02-01T10:46:43;0.30;;;0.30;;
10839;SDS011;5473;42.706;23.328;2023-02-01T10:49:12;0.40;;;0.40;;
10839;SDS011;5473;42.706;23.328;2023-02-01T10:51:44;0.40;;;0.40;;
10839;SDS011;5473;42.706;23.328;2023-02-01T10:54:14;0.30;;;0.30;;
10839;SDS011;5473;42.706;23.328;2023-02-01T10:56:45;0.40;;;0.40;;
10839;SDS011;5473;42.706;23.328;2023-02-01T10:59:14;0.30;;;0.30;;
10839;SDS011;5473;42.706;23.328;2023-02-01T11:01:43;0.30;;;0.30;;
10839;SDS011;5473;42.706;23.328;2023-02-01T11:04:13;0.30;;;0.30;;
10839;SDS011;5473;42.706;23.328;2023-02-01T11:06:42;0.30;;;0.30;;
10839;SDS011;5473;42.706;23.328;2023-02-01T11:09:11;0.30;;;0.30;;
10839;SDS011;5473;42.706;23.328;2023-02-01T11:11:55;0.20;;;0.20;;
10839;SDS011;5473;42.706;23.328;2023-02-01T11:14:27;0.20;;;0.20;;
10839;SDS011;5473;42.706;23.328;2023-02-01T11:17:03;0.20;;;0.20;;
10839;SDS011;5473;42.706;23.328;2023-02-01T11:19:45;0.30;;;0.30;;
10839;SDS011;5473;42.706;23.328;2023-02-01T11:22:13;0.23;;;0.23;;
10839;SDS011;5473;42.706;23.328;2023-02-01T11:24:41;0.30;;;0.30;;
10839;SDS011;5473;42.706;23.328;2023-02-01T11:27:12;0.30;;;0.30;;
10839;SDS011;5473;42.706;23.328;2023-02-01T11:29:43;0.30;;;0.30;;
10839;SDS011;5473;42.706;23.328;2023-02-01T11:32:13;0.30;;;0.30;;
10839;SDS011;5473;42.706;23.328;2023-02-01T11:34:43;0.20;;;0.20;;
10839;SDS011;5473;42.706;23.328;2023-02-01T11:37:17;0.20;;;0.20;;
10839;SDS011;5473;42.706;23.328;2023-02-01T11:39:53;0.30;;;0.30;;
10839;SDS011;5473;42.706;23.328;2023-02-01T11:42:20;0.30;;;0.30;;
10839;SDS011;5473;42.706;23.328;2023-02-01T11:44:47;0.30;;;0.30;;
10839;SDS011;5473;42.706;23.328;2023-02-01T11:47:24;0.30;;;0.30;;
10839;SDS011;5473;42.706;23.328;2023-02-01T11:49:54;0.30;;;0.30;;
10839;SDS011;5473;42.706;23.328;2023-02-01T11:52:33;0.30;;;0.30;;
10839;SDS011;5473;42.706;23.328;2023-02-01T12:01:00;0.30;;;0.30;;
10839;SDS011;5473;42.706;23.328;2023-02-01T12:04:00;0.40;;;0.40;;
10839;SDS011;5473;42.706;23.328;2023-02-01T12:07:00;0.37;;;0.37;;
10839;SDS011;5473;42.706;23.328;2023-02-01T12:09:39;0.30;;;0.30;;
10839;SDS011;5473;42.706;23.328;2023-02-01T12:12:18;0.30;;;0.30;;
10839;SDS011;5473;42.706;23.328;2023-02-01T12:14:59;0.23;;;0.23;;
10839;SDS011;5473;42.706;23.328;2023-02-01T12:17:46;0.20;;;0.20;;
10839;SDS011;5473;42.706;23.328;2023-02-01T12:20:41;0.30;;;0.30;;
10839;SDS011;5473;42.706;23.328;2023-02-01T12:23:27;0.30;;;0.30;;
10839;SDS011;5473;42.706;23.328;2023-02-01T12:26:12;0.40;;;0.40;;
10839;SDS011;5473;42.706;23.328;2023-02-01T12:29:03;0.30;;;0.30;;
10839;SDS011;5473;42.706;23.328;2023-02-01T12:31:43;0.30;;;0.30;;
10839;SDS011;5473;42.706;23.328;2023-02-01T12:37:16;0.40;;;0.40;;
10839;SDS011;5473;42.706;23.328;2023-02-01T12:39:56;0.40;;;0.40;;
10839;SDS011;5473;42.706;23.328;2023-02-01T12:42:34;0.40;;;0.40;;
10839;SDS011;5473;42.706;23.328;2023-02-01T12:45:09;0.40;;;0.40;;
10839;SDS011;5473;42.706;23.328;2023-02-01T12:47:41;0.40;;;0.40;;
10839;SDS011;5473;42.706;23.328;2023-02-01T12:50:14;0.40;;;0.40;;
10839;SDS011;5473;42.706;23.328;2023-02-01T12:52:49;0.50;;;0.50;;
10839;SDS011;5473;42.706;23.328;2023-02-01T12:55:19;0.40;;;0.40;;
10839;SDS011;5473;42.706;23.328;2023-02-01T12:57:50;0.50;;;0.50;;
10839;SDS011;5473;42.706;23.328;2023-02-01T13:00:23;0.60;;;0.60;;
10839;SDS011;5473;42.706;23.328;2023-02-01T13:02:59;0.50;;;0.50;;
10839;SDS011;5473;42.706;23.328;2023-02-01T13:05:34;0.50;;;0.50;;
10839;SDS011;5473;42.706;23.328;2023-02-01T13:08:09;0.50;;;0.50;;
10839;SDS011;5473;42.706;23.328;2023-02-01T13:10:42;0.60;;;0.60;;
10839;SDS011;5473;42.706;23.328;2023-02-01T13:13:14;0.60;;;0.60;;
10839;SDS011;5473;42.706;23.328;2023-02-01T13:15:47;0.67;;;0.67;;
10839;SDS011;5473;42.706;23.328;2023-02-01T13:18:18;0.43;;;0.43;;
10839;SDS011;5473;42.706;23.328;2023-02-01T13:20:49;0.50;;;0.50;;
10839;SDS011;5473;42.706;23.328;2023-02-01T13:23:23;0.43;;;0.43;;
10839;SDS011;5473;42.706;23.328;2023-02-01T13:25:55;0.47;;;0.47;;
10839;SDS011;5473;42.706;23.328;2023-02-01T13:28:25;0.50;;;0.50;;
10839;SDS011;5473;42.706;23.328;2023-02-01T13:30:58;0.60;;;0.60;;
10839;SDS011;5473;42.706;23.328;2023-02-01T13:33:43;0.50;;;0.50;;
10839;SDS011;5473;42.706;23.328;2023-02-01T13:42:22;0.57;;;0.57;;
10839;SDS011;5473;42.706;23.328;2023-02-01T13:44:56;0.60;;;0.60;;
10839;SDS011;5473;42.706;23.328;2023-02-01T13:47:26;0.70;;;0.70;;
10839;SDS011;5473;42.706;23.328;2023-02-01T13:49:55;0.50;;;0.50;;
10839;SDS011;5473;42.706;23.328;2023-02-01T13:52:30;0.60;;;0.60;;
10839;SDS011;5473;42.706;23.328;2023-02-01T13:55:03;0.60;;;0.60;;
10839;SDS011;5473;42.706;23.328;2023-02-01T13:57:43;0.40;;;0.40;;
10839;SDS011;5473;42.706;23.328;2023-02-01T14:00:23;0.50;;;0.50;;
10839;SDS011;5473;42.706;23.328;2023-02-01T14:05:57;0.50;;;0.50;;
10839;SDS011;5473;42.706;23.328;2023-02-01T14:08:44;0.50;;;0.50;;
10839;SDS011;5473;42.706;23.328;2023-02-01T14:11:36;0.50;;;0.50;;
10839;SDS011;5473;42.706;23.328;2023-02-01T14:23:22;0.53;;;0.53;;
10839;SDS011;5473;42.706;23.328;2023-02-01T14:28:46;0.60;;;0.60;;
10839;SDS011;5473;42.706;23.328;2023-02-01T14:31:32;0.60;;;0.60;;
10839;SDS011;5473;42.706;23.328;2023-02-01T14:34:15;0.50;;;0.50;;
10839;SDS011;5473;42.706;23.328;2023-02-01T14:36:47;0.50;;;0.50;;
10839;SDS011;5473;42.706;23.328;2023-02-01T14:39:25;0.60;;;0.60;;
10839;SDS011;5473;42.706;23.328;2023-02-01T14:41:56;0.50;;;0.50;;
10839;SDS011;5473;42.706;23.328;2023-02-01T14:44:27;0.60;;;0.60;;
10839;SDS011;5473;42.706;23.328;2023-02-01T14:50:04;0.60;;;0.60;;
10839;SDS011;5473;42.706;23.328;2023-02-01T14:52:40;0.50;;;0.50;;
10839;SDS011;5473;42.706;23.328;2023-02-01T14:55:11;0.60;;;0.60;;
10839;SDS011;5473;42.706;23.328;2023-02-01T14:57:41;0.50;;;0.50;;
10839;SDS011;5473;42.706;23.328;2023-02-01T15:00:18;0.60;;;0.60;;
10839;SDS011;5473;42.706;23.328;2023-02-01T15:02:50;0.50;;;0.50;;
10839;SDS011;5473;42.706;23.328;2023-02-01T15:05:23;0.60;;;0.60;;
10839;SDS011;5473;42.706;23.328;2023-02-01T15:07:54;0.60;;;0.60;;
10839;SDS011;5473;42.706;23.328;2023-02-01T15:10:23;0.60;;;0.60;;
10839;SDS011;5473;42.706;23.328;2023-02-01T15:12:50;0.60;;;0.60;;
10839;SDS011;5473;42.706;23.328;2023-02-01T15:15:18;0.60;;;0.60;;
10839;SDS011;5473;42.706;23.328;2023-02-01T15:17:52;0.60;;;0.60;;
10839;SDS011;5473;42.706;23.328;2023-02-01T15:20:21;0.60;;;0.60;;
10839;SDS011;5473;42.706;23.328;2023-02-01T15:22:53;0.50;;;0.50;;
10839;SDS011;5473;42.706;23.328;2023-02-01T15:25:21;0.60;;;0.60;;
10839;SDS011;5473;42.706;23.328;2023-02-01T15:27:49;0.50;;;0.50;;
10839;SDS011;5473;42.706;23.328;2023-02-01T15:30:17;0.53;;;0.53;;
10839;SDS011;5473;42.706;23.328;2023-02-01T15:32:45;0.50;;;0.50;;
10839;SDS011;5473;42.706;23.328;2023-02-01T15:35:37;0.50;;;0.50;;
10839;SDS011;5473;42.706;23.328;2023-02-01T15:38:30;0.60;;;0.60;;
10839;SDS011;5473;42.706;23.328;2023-02-01T15:41:06;0.50;;;0.50;;
10839;SDS011;5473;42.706;23.328;2023-02-01T15:43:36;0.60;;;0.60;;
10839;SDS011;5473;42.706;23.328;2023-02-01T15:46:07;0.60;;;0.60;;
10839;SDS011;5473;42.706;23.328;2023-02-01T15:48:38;0.60;;;0.60;;
10839;SDS011;5473;42.706;23.328;2023-02-01T15:51:17;0.60;;;0.60;;